Time;durP1;ratioP1;P1;durP2;ratioP2;P2;SDS_P1;SDS_P2;PMS_P1;PMS_P2;Temp;Humidity;BMP_temperature;BMP_pressure;BME280_temperature;BME280_humidity;BME280_pressure;Samples;Min_cycle;Max_cycle;Signal;HPM_P1;HPM_P2
2023/06/02 00:01:43;;;;;;;;;8.00;5.50;;;;;13.65;58.42;100261.16;5115335;28;8842;-61
2023/06/02 00:04:12;;;;;;;;;3.00;3.00;;;;;13.64;58.05;100262.13;5115131;28;8986;-58
2023/06/02 00:06:39;;;;;;;;;8.50;7.50;;;;;13.63;58.73;100263.13;5116114;28;8944;-60
2023/06/02 00:09:07;;;;;;;;;11.25;7.50;;;;;13.60;58.51;100262.53;5116316;28;8847;-59
2023/06/02 00:11:36;;;;;;;;;6.50;6.50;;;;;13.53;58.42;100266.72;5115693;28;8827;-60
2023/06/02 00:14:04;;;;;;;;;6.50;5.50;;;;;13.52;58.76;100263.19;5115639;28;8929;-60
2023/06/02 00:16:33;;;;;;;;;6.00;6.00;;;;;13.51;58.69;100266.00;5115861;28;8966;-60
2023/06/02 00:19:01;;;;;;;;;7.00;6.00;;;;;13.50;58.63;100267.84;5116076;28;8843;-60
2023/06/02 00:21:28;;;;;;;;;7.00;6.00;;;;;13.51;58.84;100269.53;5115568;28;8827;-60
2023/06/02 00:23:56;;;;;;;;;5.00;4.50;;;;;13.50;58.58;100259.81;5116194;28;8816;-60
2023/06/02 00:26:25;;;;;;;;;4.00;4.00;;;;;13.46;58.67;100260.19;5116050;28;8820;-60
2023/06/02 00:28:55;;;;;;;;;4.00;4.00;;;;;13.40;58.51;100256.25;5114952;28;8958;-60
2023/06/02 00:31:23;;;;;;;;;6.00;5.50;;;;;13.37;58.40;100261.00;5115694;28;8893;-59
2023/06/02 00:33:50;;;;;;;;;7.00;5.50;;;;;13.33;58.42;100272.94;5114754;28;8812;-60
2023/06/02 00:36:18;;;;;;;;;2.00;2.00;;;;;13.29;58.30;100266.16;5115233;28;8804;-60
2023/06/02 00:38:46;;;;;;;;;9.25;8.00;;;;;13.26;59.16;100269.09;5116408;28;8842;-59
2023/06/02 00:41:14;;;;;;;;;7.25;5.00;;;;;13.22;58.87;100273.84;5116313;28;8938;-61
2023/06/02 00:43:41;;;;;;;;;6.00;6.00;;;;;13.18;58.94;100267.06;5115344;28;8822;-61
2023/06/02 00:46:09;;;;;;;;;6.00;4.00;;;;;13.16;58.79;100273.53;5117935;28;8888;-59
2023/06/02 00:48:37;;;;;;;;;4.00;3.00;;;;;13.16;59.08;100277.06;5119189;28;9494;-60
2023/06/02 00:51:05;;;;;;;;;7.00;6.50;;;;;13.16;59.15;100281.56;5118945;28;8836;-60
2023/06/02 00:53:33;;;;;;;;;4.00;4.00;;;;;13.12;59.02;100278.28;5118175;28;8829;-60
2023/06/02 00:56:01;;;;;;;;;4.00;4.00;;;;;13.09;58.91;100288.38;5119280;28;8827;-61
2023/06/02 00:58:30;;;;;;;;;6.00;5.50;;;;;13.03;59.17;100272.88;5119051;28;8816;-60
2023/06/02 01:00:59;;;;;;;;;8.50;7.50;;;;;13.02;59.24;100279.19;5119258;28;8847;-59
2023/06/02 01:03:28;;;;;;;;;6.00;5.50;;;;;13.01;58.93;100270.34;5118242;28;8816;-62
2023/06/02 01:05:56;;;;;;;;;5.50;5.50;;;;;13.02;58.85;100276.50;5098582;28;8845;-59
2023/06/02 01:08:23;;;;;;;;;7.00;6.00;;;;;13.01;58.71;100280.16;5098420;28;8849;-60
2023/06/02 01:10:51;;;;;;;;;3.75;3.75;;;;;12.98;58.86;100270.56;5097969;28;8830;-60
2023/06/02 01:13:19;;;;;;;;;4.00;3.50;;;;;12.96;59.30;100277.88;5114091;28;8832;-60
2023/06/02 01:15:47;;;;;;;;;5.25;5.00;;;;;12.91;59.19;100274.72;5118662;28;8819;-60
2023/06/02 01:18:14;;;;;;;;;1.00;1.00;;;;;12.88;58.91;100268.78;5119411;28;8823;-59
2023/06/02 01:20:47;;;;;;;;;5.50;5.00;;;;;12.84;59.19;100262.00;5118495;28;8900;-59
2023/06/02 01:23:16;;;;;;;;;1.50;0.50;;;;;12.85;58.72;100264.53;5117802;28;8812;-60
2023/06/02 01:25:44;;;;;;;;;4.00;3.50;;;;;12.82;58.97;100261.25;5118163;28;8820;-60
2023/06/02 01:28:11;;;;;;;;;5.00;5.00;;;;;12.82;59.05;100264.78;5118650;28;8815;-61
2023/06/02 01:30:39;;;;;;;;;3.00;3.00;;;;;12.83;58.63;100263.81;5118357;28;8836;-60
2023/06/02 01:33:07;;;;;;;;;4.00;4.00;;;;;12.81;58.75;100263.09;5118748;28;8832;-60
2023/06/02 01:35:35;;;;;;;;;5.00;5.00;;;;;12.82;58.97;100261.25;5118612;28;8909;-60
2023/06/02 01:38:02;;;;;;;;;6.75;6.25;;;;;12.81;59.41;100256.91;5118098;28;8828;-60
2023/06/02 01:40:30;;;;;;;;;4.50;3.00;;;;;12.77;59.43;100253.63;5117943;28;8836;-59
2023/06/02 01:43:00;;;;;;;;;3.00;1.50;;;;;12.75;59.17;100252.91;5118166;28;8929;-60
2023/06/02 01:45:30;;;;;;;;;4.00;4.00;;;;;12.73;59.32;100251.34;5118268;28;8812;-62
2023/06/02 01:47:57;;;;;;;;;3.75;3.75;;;;;12.71;59.55;100248.81;5118729;28;8828;-62
2023/06/02 01:50:25;;;;;;;;;4.25;3.75;;;;;12.72;59.19;100253.19;5118311;28;8835;-59
2023/06/02 01:52:52;;;;;;;;;7.00;4.00;;;;;12.68;58.99;100250.91;5117120;28;8824;-62
2023/06/02 01:55:20;;;;;;;;;3.75;3.50;;;;;12.63;59.37;100253.09;5118798;28;8808;-60
2023/06/02 01:57:48;;;;;;;;;3.75;3.75;;;;;12.60;59.06;100248.84;5118346;28;8819;-61
2023/06/02 02:00:15;;;;;;;;;6.00;6.00;;;;;12.60;59.33;100254.19;5116658;28;8820;-60
2023/06/02 02:02:43;;;;;;;;;3.00;1.50;;;;;12.62;59.01;100256.75;5117567;28;8827;-59
2023/06/02 02:05:11;;;;;;;;;7.25;6.50;;;;;12.59;59.35;100256.97;5118113;28;8880;-59
2023/06/02 02:07:42;;;;;;;;;3.75;3.00;;;;;12.55;59.57;100255.56;5117753;28;8970;-59
2023/06/02 02:10:10;;;;;;;;;4.50;4.00;;;;;12.53;59.29;100252.16;5117022;28;8846;-59
2023/06/02 02:12:37;;;;;;;;;3.00;3.00;;;;;12.51;59.08;100260.31;5117400;28;8827;-61
2023/06/02 02:15:06;;;;;;;;;3.75;3.75;;;;;12.49;59.37;100259.59;5117310;28;8839;-60
2023/06/02 02:17:34;;;;;;;;;3.00;3.00;;;;;12.47;59.14;100255.34;5117343;28;9628;-59
2023/06/02 02:20:05;;;;;;;;;6.00;4.00;;;;;12.43;59.37;100259.22;5117770;28;8846;-62
2023/06/02 02:22:33;;;;;;;;;4.50;3.75;;;;;12.43;59.39;100256.56;5118247;28;8970;-60
2023/06/02 02:25:02;;;;;;;;;3.00;3.00;;;;;12.43;59.68;100261.91;5116413;28;8855;-60
2023/06/02 02:27:29;;;;;;;;;4.00;4.00;;;;;12.41;59.38;100255.84;5117576;28;8938;-60
2023/06/02 02:29:57;;;;;;;;;3.00;3.00;;;;;12.38;59.25;100258.78;5116355;28;8823;-62
2023/06/02 02:32:25;;;;;;;;;2.00;2.00;;;;;12.36;59.93;100258.88;5117861;28;8839;-60
2023/06/02 02:34:53;;;;;;;;;3.00;2.50;;;;;12.35;59.78;100264.34;5117995;28;8868;-60
2023/06/02 02:37:21;;;;;;;;;3.00;1.00;;;;;12.33;59.42;100263.63;5117692;28;8820;-60
2023/06/02 02:40:07;;;;;;;;;1.00;0.00;;;;;12.33;59.27;100268.97;5116634;28;8901;-59
2023/06/02 02:42:35;;;;;;;;;6.50;5.50;;;;;12.32;59.23;100273.44;5117170;28;9497;-59
2023/06/02 02:45:03;;;;;;;;;6.00;4.00;;;;;12.31;59.86;100273.59;5117162;28;8854;-59
2023/06/02 02:47:31;;;;;;;;;3.25;3.00;;;;;12.30;59.73;100274.59;5117608;28;8840;-59
2023/06/02 02:49:59;;;;;;;;;1.50;1.00;;;;;12.29;59.59;100271.03;5117440;28;8830;-61
2023/06/02 02:52:28;;;;;;;;;5.50;4.50;;;;;12.25;59.94;100279.44;5117741;28;8862;-59
2023/06/02 02:54:56;;;;;;;;;3.00;3.00;;;;;12.23;59.41;100273.38;5117476;28;8850;-61
2023/06/02 02:57:23;;;;;;;;;2.50;2.50;;;;;12.22;59.85;100268.97;5116679;28;8836;-60
2023/06/02 02:59:51;;;;;;;;;4.00;3.00;;;;;12.22;59.92;100277.84;5116206;28;8816;-59
2023/06/02 03:02:19;;;;;;;;;3.00;3.00;;;;;12.19;59.35;100279.91;5115896;28;8816;-61
2023/06/02 03:04:47;;;;;;;;;3.75;3.00;;;;;12.14;59.95;100277.63;5116227;28;8840;-61
2023/06/02 03:07:14;;;;;;;;;2.50;2.50;;;;;12.14;59.52;100277.63;5116621;28;8942;-61
2023/06/02 03:09:42;;;;;;;;;1.00;1.00;;;;;12.13;59.66;100273.25;5115981;28;8832;-60
2023/06/02 03:12:09;;;;;;;;;2.50;2.50;;;;;12.11;59.79;100280.56;5117267;28;8854;-60
2023/06/02 03:14:37;;;;;;;;;1.00;1.00;;;;;12.12;59.93;100281.38;5116908;28;8947;-62
2023/06/02 03:17:05;;;;;;;;;1.00;1.00;;;;;12.13;60.01;100286.63;5116692;28;8828;-62
2023/06/02 03:19:34;;;;;;;;;3.00;3.00;;;;;12.12;59.58;100290.25;5116942;28;8824;-62
2023/06/02 03:22:03;;;;;;;;;3.00;3.00;;;;;12.11;59.69;100283.22;5117228;28;8871;-60
2023/06/02 03:24:31;;;;;;;;;3.75;3.00;;;;;12.11;59.44;100287.69;5116826;28;8909;-59
2023/06/02 03:26:59;;;;;;;;;4.00;2.00;;;;;12.11;59.47;100291.22;5115672;28;8854;-62
2023/06/02 03:29:28;;;;;;;;;1.50;1.50;;;;;12.08;59.14;100293.31;5115301;28;8839;-60
2023/06/02 03:31:56;;;;;;;;;5.50;3.75;;;;;12.07;59.61;100288.94;5115602;28;8962;-60
2023/06/02 03:34:24;;;;;;;;;3.00;2.50;;;;;12.05;59.62;100297.06;5116105;28;8996;-61
2023/06/02 03:36:51;;;;;;;;;1.50;1.50;;;;;12.06;59.26;100297.88;5116493;28;8830;-59
2023/06/02 03:39:19;;;;;;;;;1.50;1.00;;;;;12.09;59.46;100301.16;5116088;28;8827;-61
2023/06/02 03:41:47;;;;;;;;;2.50;2.50;;;;;12.13;59.35;100301.78;5115418;28;8836;-60
2023/06/02 03:44:15;;;;;;;;;3.50;3.00;;;;;12.12;59.29;100295.59;5115850;28;8850;-61
2023/06/02 03:46:42;;;;;;;;;3.00;3.00;;;;;12.12;59.61;100295.59;5116304;28;8859;-61
2023/06/02 03:49:10;;;;;;;;;4.75;4.25;;;;;12.14;59.21;100290.13;5115975;28;8820;-60
2023/06/02 03:51:38;;;;;;;;;1.00;1.00;;;;;12.15;59.11;100291.84;5115957;28;8820;-59
2023/06/02 03:54:06;;;;;;;;;3.00;3.00;;;;;12.16;59.16;100289.03;5116079;28;8824;-59
2023/06/02 03:56:33;;;;;;;;;2.00;2.00;;;;;12.13;58.94;100289.28;5116490;28;8841;-62
2023/06/02 03:59:01;;;;;;;;;3.00;1.00;;;;;12.11;59.16;100299.25;5115372;28;9644;-60
2023/06/02 04:01:29;;;;;;;;;1.50;1.50;;;;;12.08;59.28;100299.47;5115612;28;8841;-60
2023/06/02 04:03:56;;;;;;;;;3.50;3.50;;;;;12.05;59.45;100297.06;5115164;28;8966;-60
2023/06/02 04:06:25;;;;;;;;;3.50;3.00;;;;;12.05;58.78;100299.72;5114861;28;8812;-60
2023/06/02 04:08:53;;;;;;;;;3.00;1.50;;;;;12.08;59.15;100309.31;5115129;28;8816;-61
2023/06/02 04:11:22;;;;;;;;;3.00;3.00;;;;;12.13;58.94;100307.09;5116349;28;8854;-62
2023/06/02 04:13:50;;;;;;;;;3.00;3.00;;;;;12.16;59.01;100306.88;5116200;28;8815;-62
2023/06/02 04:16:18;;;;;;;;;3.25;3.25;;;;;12.20;59.17;100309.19;5115815;28;8954;-61
2023/06/02 04:18:46;;;;;;;;;3.00;2.50;;;;;12.20;58.71;100303.84;5116617;28;9560;-62
2023/06/02 04:21:14;;;;;;;;;3.50;3.00;;;;;12.22;59.19;100309.03;5119410;28;9441;-62
2023/06/02 04:23:42;;;;;;;;;2.50;1.00;;;;;12.22;58.83;100317.03;5120121;28;8900;-61
2023/06/02 04:26:09;;;;;;;;;3.33;3.33;;;;;12.22;58.64;100317.91;5120210;28;8921;-62
2023/06/02 04:28:38;;;;;;;;;2.00;1.50;;;;;12.21;58.72;100312.69;5119364;28;8832;-62
2023/06/02 04:31:06;;;;;;;;;7.00;6.00;;;;;12.24;58.66;100309.78;5118937;28;8857;-59
2023/06/02 04:33:34;;;;;;;;;1.00;1.00;;;;;12.24;58.66;100315.13;5118593;28;8982;-60
2023/06/02 04:36:01;;;;;;;;;4.50;4.50;;;;;12.26;58.90;100314.03;5118447;28;8820;-62
2023/06/02 04:38:30;;;;;;;;;4.75;4.75;;;;;12.30;58.84;100311.97;5119143;28;8835;-61
2023/06/02 04:41:01;;;;;;;;;3.00;3.00;;;;;12.32;59.13;100324.19;5119386;28;8942;-60
2023/06/02 04:43:28;;;;;;;;;4.00;3.50;;;;;12.37;59.03;100321.16;5119636;28;8838;-61
2023/06/02 04:46:01;;;;;;;;;4.50;3.75;;;;;12.38;58.17;100321.03;5119450;28;8840;-59
2023/06/02 04:48:29;;;;;;;;;1.00;1.00;;;;;12.37;58.58;100318.47;5119273;28;8958;-61
2023/06/02 04:50:57;;;;;;;;;4.00;4.00;;;;;12.39;58.76;100322.72;5118610;28;8824;-61
2023/06/02 04:53:25;;;;;;;;;1.50;1.50;;;;;12.39;58.83;100313.88;5118855;28;8840;-60
2023/06/02 04:55:53;;;;;;;;;5.00;5.00;;;;;12.40;58.86;100318.25;5118211;28;8947;-60
2023/06/02 04:58:21;;;;;;;;;4.00;4.00;;;;;12.43;58.26;100326.00;5118405;28;8946;-59
2023/06/02 05:00:49;;;;;;;;;3.00;2.00;;;;;12.46;58.50;100315.91;5118350;28;8856;-59
2023/06/02 05:03:16;;;;;;;;;4.00;4.00;;;;;12.47;58.57;100319.44;5118007;28;8836;-62
2023/06/02 05:05:44;;;;;;;;;5.00;3.50;;;;;12.47;58.52;100322.94;5117927;28;8844;-59
2023/06/02 05:08:12;;;;;;;;;3.00;3.00;;;;;12.47;58.42;100322.13;5119112;28;9526;-60
2023/06/02 05:10:40;;;;;;;;;5.00;5.00;;;;;12.45;58.22;100316.91;5117856;28;8836;-61
2023/06/02 05:13:08;;;;;;;;;6.25;6.25;;;;;12.48;58.24;100321.16;5118432;28;8836;-61
2023/06/02 05:15:36;;;;;;;;;3.75;3.75;;;;;12.50;58.37;100317.38;5117857;28;8842;-62
2023/06/02 05:18:04;;;;;;;;;8.00;6.00;;;;;12.49;58.32;100317.50;5118168;28;9022;-60
2023/06/02 05:20:33;;;;;;;;;4.50;3.50;;;;;12.48;58.49;100322.00;5118775;28;8824;-62
2023/06/02 05:23:01;;;;;;;;;3.00;3.00;;;;;12.48;58.65;100318.47;5118020;28;8827;-61
2023/06/02 05:25:29;;;;;;;;;4.00;3.50;;;;;12.49;58.39;100314.81;5117918;28;8946;-60
2023/06/02 05:27:56;;;;;;;;;5.50;4.00;;;;;12.46;58.69;100317.75;5117262;28;8836;-60
2023/06/02 05:30:24;;;;;;;;;7.00;6.25;;;;;12.45;58.36;100319.56;5117607;28;8847;-60
2023/06/02 05:32:52;;;;;;;;;6.25;4.25;;;;;12.47;58.22;100316.78;5117161;28;9820;-61
2023/06/02 05:35:20;;;;;;;;;4.50;3.25;;;;;12.48;58.63;100314.00;5117596;28;8843;-61
2023/06/02 05:37:48;;;;;;;;;6.00;6.00;;;;;12.53;58.14;100314.44;5116696;28;8824;-59
2023/06/02 05:40:15;;;;;;;;;4.00;4.00;;;;;12.58;58.00;100311.41;5117345;28;8835;-60
2023/06/02 05:42:44;;;;;;;;;4.25;3.50;;;;;12.59;58.21;100319.28;5117236;28;8816;-60
2023/06/02 05:45:11;;;;;;;;;4.00;3.00;;;;;12.61;58.12;100321.84;5117576;28;8828;-60
2023/06/02 05:47:39;;;;;;;;;4.75;4.25;;;;;12.59;58.01;100324.63;5117004;28;8828;-60
2023/06/02 05:50:07;;;;;;;;;4.00;4.00;;;;;12.60;57.92;100328.16;5117095;28;8945;-59
2023/06/02 05:52:37;;;;;;;;;3.25;3.00;;;;;12.62;58.18;100321.69;5116866;28;8812;-59
2023/06/02 05:55:05;;;;;;;;;3.00;2.50;;;;;12.64;57.89;100317.09;5116587;28;8932;-59
2023/06/02 05:57:33;;;;;;;;;5.00;4.50;;;;;12.68;58.13;100323.88;5115905;28;8836;-60
2023/06/02 06:00:01;;;;;;;;;7.00;6.00;;;;;12.73;58.09;100318.16;5116095;28;8835;-61
2023/06/02 06:02:29;;;;;;;;;4.00;3.50;;;;;12.76;58.14;100315.25;5116276;28;8816;-60
2023/06/02 06:04:56;;;;;;;;;4.00;4.00;;;;;12.81;57.69;100321.03;5115720;28;8840;-60
2023/06/02 06:07:24;;;;;;;;;4.00;3.00;;;;;12.83;58.07;100319.09;5115577;28;8851;-60
2023/06/02 06:09:52;;;;;;;;;3.50;3.25;;;;;12.82;58.06;100325.41;5115989;28;8954;-59
2023/06/02 06:12:20;;;;;;;;;3.00;3.00;;;;;12.82;58.30;100318.25;5115337;28;8828;-61
2023/06/02 06:14:48;;;;;;;;;3.00;3.00;;;;;12.85;58.15;100325.16;5115568;28;8811;-59
2023/06/02 06:17:16;;;;;;;;;3.00;3.00;;;;;12.84;58.04;100323.47;5116019;28;9893;-60
2023/06/02 06:19:43;;;;;;;;;3.50;3.00;;;;;12.85;57.52;100328.66;5116110;28;8859;-60
2023/06/02 06:22:11;;;;;;;;;3.00;3.00;;;;;12.90;57.84;100329.16;5116486;28;8836;-60
2023/06/02 06:24:40;;;;;;;;;4.50;4.00;;;;;12.94;58.03;100327.06;5116236;28;8840;-62
2023/06/02 06:27:08;;;;;;;;;6.50;5.50;;;;;12.93;57.76;100314.69;5116581;28;9506;-62
2023/06/02 06:29:37;;;;;;;;;3.00;1.00;;;;;12.95;57.73;100332.34;5115831;28;8882;-60
2023/06/02 06:32:05;;;;;;;;;3.00;3.00;;;;;12.97;57.51;100330.38;5115758;28;8843;-59
2023/06/02 06:34:33;;;;;;;;;3.75;2.00;;;;;12.99;57.81;100325.75;5116110;28;8875;-60
2023/06/02 06:37:01;;;;;;;;;3.00;3.00;;;;;13.02;57.59;100336.19;5115868;28;8986;-61
2023/06/02 06:39:29;;;;;;;;;4.00;3.25;;;;;13.09;57.74;100332.03;5116075;28;8889;-62
2023/06/02 06:41:56;;;;;;;;;3.00;3.00;;;;;13.15;56.91;100342.19;5114725;28;9770;-59
2023/06/02 06:44:24;;;;;;;;;5.00;5.00;;;;;13.24;57.28;100346.78;5114642;28;8844;-59
2023/06/02 06:46:53;;;;;;;;;1.00;1.00;;;;;13.24;57.42;100344.13;5115476;28;8925;-59
2023/06/02 06:49:21;;;;;;;;;6.25;6.00;;;;;13.28;57.52;100352.75;5115563;28;8831;-59
2023/06/02 06:51:49;;;;;;;;;3.00;3.00;;;;;13.35;57.60;100348.56;5115506;28;8828;-60
2023/06/02 06:54:17;;;;;;;;;3.25;3.25;;;;;13.42;57.18;100352.41;5115583;28;8871;-59
2023/06/02 06:56:45;;;;;;;;;5.00;4.50;;;;;13.50;56.54;100348.09;5115912;28;8960;-60
2023/06/02 06:59:13;;;;;;;;;4.00;4.00;;;;;13.53;57.00;100344.31;5115480;28;8851;-60
2023/06/02 07:01:43;;;;;;;;;4.00;3.00;;;;;13.56;56.65;100347.59;5115547;28;8974;-61
2023/06/02 07:04:17;;;;;;;;;6.00;5.50;;;;;13.62;56.50;100352.41;5130138;27;13474;-60
2023/06/02 07:06:45;;;;;;;;;4.00;3.00;;;;;13.70;56.60;100349.06;5112756;28;8828;-62
2023/06/02 07:09:15;;;;;;;;;4.00;4.00;;;;;13.74;56.30;100350.53;5112354;28;8838;-59
2023/06/02 07:11:43;;;;;;;;;6.25;5.50;;;;;13.77;56.69;100347.56;5111913;28;8897;-60
2023/06/02 07:14:10;;;;;;;;;3.00;3.00;;;;;13.81;56.27;100352.53;5111917;28;8819;-61
2023/06/02 07:16:43;;;;;;;;;5.00;4.00;;;;;13.90;56.16;100348.22;5111463;28;8828;-60
2023/06/02 07:19:11;;;;;;;;;3.75;3.75;;;;;13.99;55.74;100350.94;5111666;28;8820;-60
2023/06/02 07:21:39;;;;;;;;;0.75;0.00;;;;;14.08;55.56;100350.13;5112129;28;8933;-59
2023/06/02 07:24:07;;;;;;;;;6.00;6.00;;;;;14.17;55.52;100353.81;5112674;28;8844;-59
2023/06/02 07:26:34;;;;;;;;;4.75;3.00;;;;;14.21;55.17;100349.94;5112385;28;8824;-59
2023/06/02 07:29:03;;;;;;;;;3.50;3.00;;;;;14.21;55.34;100350.75;5112183;28;8831;-60
2023/06/02 07:31:30;;;;;;;;;6.00;4.00;;;;;14.26;54.77;100353.91;5111993;28;8868;-60
2023/06/02 07:33:58;;;;;;;;;3.50;3.50;;;;;14.25;55.42;100345.97;5112535;28;8839;-62
2023/06/02 07:36:26;;;;;;;;;6.00;3.50;;;;;14.28;55.34;100356.44;5111998;28;8832;-59
2023/06/02 07:38:54;;;;;;;;;3.50;3.25;;;;;14.27;55.10;100355.59;5111286;28;8982;-59
2023/06/02 07:41:21;;;;;;;;;4.00;3.50;;;;;14.29;55.10;100360.81;5110684;28;8851;-60
2023/06/02 07:43:49;;;;;;;;;5.75;4.25;;;;;14.27;55.00;100357.44;5111277;28;8970;-59
2023/06/02 07:46:17;;;;;;;;;4.00;4.00;;;;;14.32;55.33;100358.72;5111220;28;8839;-58
2023/06/02 07:48:45;;;;;;;;;3.00;3.00;;;;;14.40;54.76;100355.34;5111251;28;8887;-59
2023/06/02 07:51:13;;;;;;;;;1.50;1.50;;;;;14.44;55.18;100357.66;5111290;28;8847;-59
2023/06/02 07:53:41;;;;;;;;;4.00;3.75;;;;;14.42;54.87;100354.22;5111099;28;8847;-59
2023/06/02 07:56:09;;;;;;;;;4.50;3.25;;;;;14.45;54.97;100355.78;5111140;28;8966;-59
2023/06/02 07:58:37;;;;;;;;;3.00;3.00;;;;;14.43;54.86;100355.94;5111446;28;8854;-58
2023/06/02 08:01:05;;;;;;;;;2.50;2.50;;;;;14.45;54.79;100353.97;5111472;28;8892;-59
2023/06/02 08:03:33;;;;;;;;;6.00;5.50;;;;;14.50;54.54;100361.59;5111312;28;8866;-59
2023/06/02 08:06:01;;;;;;;;;6.50;5.50;;;;;14.55;55.16;100352.16;5111538;28;8838;-58
2023/06/02 08:08:30;;;;;;;;;6.25;3.50;;;;;14.55;54.54;100359.34;5110866;28;8844;-58
2023/06/02 08:10:58;;;;;;;;;4.00;3.00;;;;;14.59;54.75;100356.28;5111415;28;8834;-59
2023/06/02 08:13:27;;;;;;;;;4.00;3.50;;;;;14.72;54.25;100358.69;5111269;28;8838;-59
2023/06/02 08:15:54;;;;;;;;;3.75;3.75;;;;;14.86;54.37;100359.13;5097463;28;8834;-59
2023/06/02 08:18:42;;;;;;;;;3.50;3.50;;;;;14.99;54.32;100361.56;5097085;28;8885;-59
2023/06/02 08:21:10;;;;;;;;;6.25;4.00;;;;;15.09;53.75;100360.56;5096451;28;8826;-59
2023/06/02 08:23:39;;;;;;;;;3.50;3.50;;;;;15.17;53.50;100355.34;5097005;28;8854;-58
2023/06/02 08:26:07;;;;;;;;;7.25;6.00;;;;;15.27;53.15;100353.53;5097051;28;8850;-59
2023/06/02 08:28:37;;;;;;;;;7.00;6.50;;;;;15.37;52.97;100362.47;5096703;28;9617;-58
2023/06/02 08:31:05;;;;;;;;;3.50;3.25;;;;;15.52;52.94;100363.72;5096370;28;8849;-60
2023/06/02 08:33:35;;;;;;;;;3.00;3.00;;;;;15.59;53.00;100369.34;5097426;28;9523;-60
2023/06/02 08:36:06;;;;;;;;;4.50;3.00;;;;;15.71;52.89;100366.34;5097735;28;9762;-59
2023/06/02 08:38:37;;;;;;;;;2.50;2.50;;;;;15.80;52.77;100370.03;5097381;28;8833;-59
2023/06/02 08:41:05;;;;;;;;;6.25;6.00;;;;;15.88;52.62;100375.53;5097380;28;8853;-59
2023/06/02 08:43:33;;;;;;;;;5.50;4.00;;;;;15.91;52.78;100372.56;5096941;28;8850;-59
2023/06/02 08:46:02;;;;;;;;;3.50;3.25;;;;;15.95;52.59;100372.13;5096838;28;8822;-60
2023/06/02 08:48:31;;;;;;;;;4.00;4.00;;;;;15.95;52.48;100363.22;5097067;28;8854;-58
2023/06/02 08:50:58;;;;;;;;;4.50;2.00;;;;;16.02;52.66;100367.00;5096889;28;8887;-61
2023/06/02 08:53:26;;;;;;;;;4.00;3.25;;;;;16.15;52.34;100362.16;5096783;28;9609;-60
2023/06/02 08:55:54;;;;;;;;;6.00;4.00;;;;;16.26;51.84;100349.38;5095886;28;8826;-60
2023/06/02 08:58:22;;;;;;;;;5.50;5.50;;;;;16.43;51.30;100352.16;5095267;28;8864;-58
2023/06/02 09:00:50;;;;;;;;;6.00;4.50;;;;;16.55;51.25;100350.13;5095709;28;8826;-59
2023/06/02 09:03:18;;;;;;;;;3.50;3.50;;;;;16.70;50.81;100354.84;5096363;28;8854;-60
2023/06/02 09:06:06;;;;;;;;;7.00;5.00;;;;;16.90;50.49;100353.72;5097488;28;8861;-62
2023/06/02 09:08:34;;;;;;;;;8.00;6.00;;;;;17.00;50.67;100353.66;5095720;28;8853;-60
2023/06/02 09:11:03;;;;;;;;;6.50;6.00;;;;;17.18;49.92;100349.97;5094683;28;8834;-60
2023/06/02 09:13:31;;;;;;;;;4.25;3.50;;;;;17.44;49.85;100341.97;5095369;28;8868;-59
2023/06/02 09:15:59;;;;;;;;;6.50;6.00;;;;;17.60;49.78;100345.66;5095579;28;8834;-59
2023/06/02 09:18:27;;;;;;;;;6.25;6.00;;;;;17.72;49.02;100344.41;5095895;28;8833;-60
2023/06/02 09:20:58;;;;;;;;;3.20;3.00;;;;;17.77;49.28;100343.94;5096382;28;8903;-60
2023/06/02 09:23:26;;;;;;;;;1.00;0.40;;;;;17.73;49.21;100340.72;5096462;28;8903;-60
2023/06/02 09:25:54;;;;;;;;;8.60;6.60;;;;;17.54;49.75;100342.75;5096023;28;8814;-60
2023/06/02 09:28:25;;;;;;;;;6.60;4.00;;;;;17.42;49.78;100343.97;5096484;28;8840;-59
2023/06/02 09:30:52;;;;;;;;;4.80;4.00;;;;;17.43;49.75;100351.06;5096127;28;8850;-60
2023/06/02 09:33:21;;;;;;;;;6.20;4.80;;;;;17.41;50.31;100347.69;5096360;28;8857;-60
2023/06/02 09:35:50;;;;;;;;;7.60;6.80;;;;;17.45;50.11;100346.38;5096114;28;8826;-60
2023/06/02 09:38:18;;;;;;;;;7.00;5.60;;;;;17.47;50.51;100339.81;5095811;28;8830;-60
2023/06/02 09:40:46;;;;;;;;;8.60;7.80;;;;;17.63;50.04;100336.41;5095435;28;8910;-60
2023/06/02 09:43:15;;;;;;;;;9.00;6.20;;;;;17.80;49.35;100338.22;5096043;28;8833;-60
2023/06/02 09:45:43;;;;;;;;;6.60;6.40;;;;;17.94;49.12;100333.09;5096103;28;8853;-60
2023/06/02 09:48:12;;;;;;;;;3.60;3.00;;;;;18.13;49.32;100332.88;5095527;28;8838;-59
2023/06/02 09:50:41;;;;;;;;;8.60;6.80;;;;;18.32;48.33;100338.06;5094883;28;9852;-59
2023/06/02 09:53:11;;;;;;;;;12.00;7.00;;;;;18.54;48.46;100334.78;5094098;28;8845;-59
2023/06/02 09:55:39;;;;;;;;;10.80;10.00;;;;;18.58;48.10;100335.31;5093723;28;8837;-59
2023/06/02 09:58:07;;;;;;;;;12.60;12.40;;;;;18.70;47.82;100340.25;5093642;28;8830;-58
2023/06/02 10:00:36;;;;;;;;;7.00;7.00;;;;;18.87;47.50;100328.47;5094128;28;8838;-59
2023/06/02 10:03:04;;;;;;;;;10.80;8.40;;;;;18.93;47.32;100330.50;5093783;28;8850;-60
2023/06/02 10:05:32;;;;;;;;;10.00;9.00;;;;;18.88;47.86;100340.13;5092439;28;8852;-60
2023/06/02 10:07:59;;;;;;;;;10.80;9.80;;;;;19.17;47.47;100335.94;5092315;28;9757;-58
2023/06/02 10:10:27;;;;;;;;;13.00;11.40;;;;;19.43;46.91;100339.38;5092885;28;8830;-58
2023/06/02 10:12:55;;;;;;;;;12.80;11.80;;;;;19.40;46.79;100333.44;5092583;28;8842;-60
2023/06/02 10:15:26;;;;;;;;;11.80;10.20;;;;;19.36;47.04;100327.53;5092632;28;8841;-59
2023/06/02 10:17:53;;;;;;;;;7.60;6.00;;;;;19.73;46.75;100327.88;5093068;28;8826;-60
2023/06/02 10:20:22;;;;;;;;;5.40;5.20;;;;;20.18;46.03;100314.63;5093761;28;8854;-59
2023/06/02 10:22:49;;;;;;;;;7.40;5.20;;;;;20.80;45.23;100313.69;5093109;28;8825;-59
2023/06/02 10:25:18;;;;;;;;;10.60;9.60;;;;;21.46;44.58;100317.47;5092878;28;8845;-59
2023/06/02 10:27:47;;;;;;;;;7.40;7.40;;;;;21.94;43.17;100318.91;5092781;28;8915;-59
2023/06/02 10:30:15;;;;;;;;;7.00;7.00;;;;;22.39;43.22;100313.31;5093037;28;8956;-59
2023/06/02 10:32:44;;;;;;;;;7.40;7.40;;;;;22.39;43.42;100319.56;5093178;28;9737;-59
2023/06/02 10:35:12;;;;;;;;;5.60;5.60;;;;;22.59;42.95;100322.56;5093768;28;8838;-60
2023/06/02 10:37:40;;;;;;;;;4.20;3.20;;;;;22.67;42.87;100319.75;5093021;28;8850;-59
2023/06/02 10:40:10;;;;;;;;;5.00;5.00;;;;;22.34;43.57;100323.88;5092912;28;8902;-59
2023/06/02 10:42:38;;;;;;;;;2.00;2.00;;;;;22.55;43.57;100318.56;5093737;28;8834;-59
2023/06/02 10:45:06;;;;;;;;;5.40;5.00;;;;;22.47;43.20;100319.50;5093923;28;8968;-59
2023/06/02 10:47:33;;;;;;;;;5.60;5.00;;;;;22.31;43.69;100318.84;5094445;28;8822;-60
2023/06/02 10:50:02;;;;;;;;;8.40;6.80;;;;;22.69;43.05;100312.28;5094499;28;8854;-59
2023/06/02 10:52:34;;;;;;;;;4.40;4.00;;;;;23.02;42.82;100316.22;5094593;28;8853;-60
2023/06/02 10:55:02;;;;;;;;;5.00;5.00;;;;;23.20;42.61;100313.91;5093272;28;8845;-59
2023/06/02 10:57:30;;;;;;;;;7.60;7.60;;;;;23.48;42.27;100310.25;5093294;28;8834;-60
2023/06/02 10:59:58;;;;;;;;;8.60;8.20;;;;;23.91;41.50;100313.75;5093444;28;8830;-60
2023/06/02 11:02:26;;;;;;;;;5.60;5.60;;;;;24.05;40.74;100316.38;5093433;28;8862;-60
2023/06/02 11:04:54;;;;;;;;;4.60;4.60;;;;;24.25;40.94;100302.88;5093100;28;8842;-60
2023/06/02 11:07:26;;;;;;;;;8.40;7.20;;;;;24.34;40.82;100307.97;5093471;28;8910;-59
2023/06/02 11:09:54;;;;;;;;;6.00;6.00;;;;;24.13;41.51;100307.22;5093504;28;8834;-61
2023/06/02 11:12:22;;;;;;;;;6.40;5.40;;;;;23.64;41.78;100320.00;5093614;28;8946;-60
2023/06/02 11:14:50;;;;;;;;;10.60;8.80;;;;;23.94;41.78;100314.22;5093714;28;8834;-60
2023/06/02 11:17:18;;;;;;;;;6.00;6.00;;;;;24.35;40.89;100308.81;5093924;28;8830;-60
2023/06/02 11:19:45;;;;;;;;;5.00;5.00;;;;;24.09;41.80;100314.09;5093854;28;8909;-59
2023/06/02 11:22:13;;;;;;;;;8.00;8.00;;;;;24.02;41.56;100313.19;5094021;28;8968;-60
2023/06/02 11:24:41;;;;;;;;;6.80;6.00;;;;;23.83;42.17;100313.88;5093823;28;8842;-60
2023/06/02 11:27:11;;;;;;;;;7.20;7.20;;;;;23.27;42.45;100310.25;5094302;28;8822;-59
2023/06/02 11:29:39;;;;;;;;;1.60;1.60;;;;;22.80;43.36;100320.78;5093775;28;8834;-59
2023/06/02 11:32:06;;;;;;;;;8.00;8.00;;;;;22.28;44.25;100321.91;5093660;28;8878;-60
2023/06/02 11:34:34;;;;;;;;;8.20;7.00;;;;;22.54;43.72;100315.00;5094460;28;8856;-60
2023/06/02 11:37:05;;;;;;;;;10.00;9.00;;;;;23.27;42.86;100310.25;5093475;28;8838;-60